createdAt,value
2023-01-08T14:38:01.389Z,97573.91
2023-01-08T14:41:50.588Z,97573.02
2023-01-08T14:45:39.678Z,97573.63
2023-01-08T14:49:31.916Z,97568.44
2023-01-08T14:53:21.015Z,97572.31
2023-01-08T14:57:10.172Z,97571.87
2023-01-08T15:01:01.881Z,97576.73
2023-01-08T15:04:50.999Z,97573.63
2023-01-08T15:08:42.749Z,97578.25
2023-01-08T15:12:34.535Z,97583.23
2023-01-08T15:16:23.653Z,97587.81
2023-01-08T15:20:12.796Z,97585.02
2023-01-08T15:24:04.540Z,97584.13
2023-01-08T15:27:53.589Z,97579.95
2023-01-08T15:31:42.744Z,97584.29
2023-01-08T15:35:31.890Z,97579.92
2023-01-08T15:39:21.002Z,97579.00
2023-01-08T15:43:31.228Z,97578.98
2023-01-08T15:47:20.322Z,97581.18
2023-01-08T15:51:09.471Z,97581.11
2023-01-08T15:54:58.626Z,97582.70
2023-01-08T15:58:47.714Z,97580.08
2023-01-08T16:02:36.838Z,97580.62
2023-01-08T16:06:25.967Z,97586.48
2023-01-08T16:10:15.039Z,97582.25
2023-01-08T16:14:04.178Z,97584.05
2023-01-08T16:17:53.291Z,97580.54
2023-01-08T16:21:42.348Z,97585.05
2023-01-08T16:25:30.399Z,97595.15
2023-01-08T16:29:19.511Z,97598.97
2023-01-08T16:33:08.619Z,97604.16
2023-01-08T16:36:57.724Z,97605.37
2023-01-08T16:40:47.074Z,97605.30
2023-01-08T16:44:36.134Z,97594.70
2023-01-08T16:48:25.239Z,97593.77
2023-01-08T16:52:14.086Z,97600.86
2023-01-08T16:56:03.152Z,97604.92
2023-01-08T16:59:52.231Z,97615.27
2023-01-08T17:03:41.329Z,97618.95
2023-01-08T17:07:30.445Z,97615.83
2023-01-08T17:11:19.645Z,97613.94
2023-01-08T17:15:08.870Z,97614.21
2023-01-08T17:18:57.979Z,97614.39
2023-01-08T17:22:47.104Z,97615.77
2023-01-08T17:26:36.165Z,97617.47
2023-01-08T17:30:25.291Z,97620.45
2023-01-08T17:34:14.422Z,97623.58
2023-01-08T17:38:03.574Z,97625.60
2023-01-08T17:41:51.339Z,97624.99
2023-01-08T17:45:40.576Z,97623.08
2023-01-08T17:49:29.692Z,97626.02
2023-01-08T17:53:18.899Z,97627.33
2023-01-08T17:57:08.182Z,97628.69
2023-01-08T18:00:57.479Z,97627.44
2023-01-08T18:04:46.580Z,97629.02
2023-01-08T18:08:36.793Z,97630.55
2023-01-08T18:12:25.867Z,97633.44
2023-01-08T18:16:15.095Z,97633.89
2023-01-08T18:20:04.196Z,97635.84
2023-01-08T18:23:53.367Z,97630.85
2023-01-08T18:27:42.726Z,97626.93
2023-01-08T18:31:31.808Z,97622.82
2023-01-08T18:35:20.937Z,97625.46
2023-01-08T18:39:10.040Z,97625.11
2023-01-08T18:42:59.194Z,97618.89
2023-01-08T18:46:48.464Z,97614.91
2023-01-08T18:50:37.599Z,97616.89
2023-01-08T18:54:26.754Z,97619.17
2023-01-08T18:58:15.825Z,97614.55
2023-01-08T19:02:04.987Z,97612.54
2023-01-08T19:05:54.164Z,97612.04
2023-01-08T19:09:43.277Z,97606.13
2023-01-08T19:13:32.376Z,97600.83
2023-01-08T19:17:21.607Z,97600.20
2023-01-08T19:21:10.889Z,97599.83
2023-01-08T19:24:59.975Z,97599.98
2023-01-08T19:28:49.084Z,97598.55
2023-01-08T19:32:38.197Z,97598.89
2023-01-08T19:36:27.349Z,97604.70
2023-01-08T19:40:16.487Z,97604.77
2023-01-08T19:44:05.624Z,97612.41
2023-01-08T19:47:55.213Z,97617.22
2023-01-08T19:51:47.183Z,97614.36
2023-01-08T19:55:36.268Z,97606.64
2023-01-08T19:59:25.351Z,97612.11
2023-01-08T20:03:14.414Z,97610.26
2023-01-08T20:07:03.463Z,97611.71
2023-01-08T20:10:52.623Z,97608.61
2023-01-08T20:14:41.730Z,97608.58
2023-01-08T20:18:30.956Z,97604.17
2023-01-08T20:22:20.041Z,97601.63
2023-01-08T20:26:09.216Z,97603.59
2023-01-08T20:29:58.370Z,97601.15
2023-01-08T20:33:47.453Z,97598.59
2023-01-08T20:37:36.539Z,97594.42
2023-01-08T20:41:25.614Z,97588.17
2023-01-08T20:45:14.696Z,97587.16
2023-01-08T20:49:03.755Z,97589.71
2023-01-08T20:52:52.845Z,97593.92
2023-01-08T20:56:44.532Z,97592.40
2023-01-08T21:00:33.655Z,97587.66
2023-01-08T21:04:22.762Z,97588.80
2023-01-08T21:08:11.875Z,97585.63
2023-01-08T21:11:59.144Z,97586.70
2023-01-08T21:15:48.328Z,97586.20
2023-01-08T21:19:37.454Z,97586.81
2023-01-08T21:23:26.567Z,97588.83
2023-01-08T21:27:15.660Z,97588.47
2023-01-08T21:31:04.753Z,97598.39
2023-01-08T21:34:53.864Z,97598.58
2023-01-08T21:38:42.935Z,97603.87
2023-01-08T21:42:30.555Z,97599.46
2023-01-08T21:46:19.591Z,97594.95
2023-01-08T21:50:08.659Z,97591.23
2023-01-08T21:53:57.716Z,97591.14
2023-01-08T21:57:46.828Z,97592.23
2023-01-08T22:01:35.941Z,97586.88
2023-01-08T22:05:25.095Z,97578.52
2023-01-08T22:09:14.260Z,97576.20
2023-01-08T22:13:03.345Z,97575.05
2023-01-08T22:16:52.432Z,97572.73
2023-01-08T22:20:41.507Z,97567.66
2023-01-08T22:24:30.608Z,97560.41
2023-01-08T22:28:19.673Z,97555.27
2023-01-08T22:32:08.764Z,97554.81
2023-01-08T22:35:57.830Z,97560.80
2023-01-08T22:39:46.903Z,97557.96
2023-01-08T22:43:35.927Z,97552.39
2023-01-08T22:47:24.992Z,97550.73
2023-01-08T22:51:14.140Z,97544.41
2023-01-08T22:55:03.181Z,97544.52
2023-01-08T22:58:52.234Z,97536.05
2023-01-08T23:02:41.374Z,97533.69
2023-01-08T23:06:30.495Z,97533.99
2023-01-08T23:10:19.572Z,97526.63
2023-01-08T23:14:08.619Z,97523.10
2023-01-08T23:17:57.699Z,97522.16
2023-01-08T23:21:42.328Z,97518.02
2023-01-08T23:25:31.406Z,97516.84
2023-01-08T23:29:20.506Z,97509.81
2023-01-08T23:33:09.622Z,97506.65
2023-01-08T23:36:58.733Z,97507.59
2023-01-08T23:40:47.920Z,97506.27
2023-01-08T23:44:36.979Z,97503.19
2023-01-08T23:48:26.457Z,97504.90
2023-01-08T23:52:15.628Z,97508.96
2023-01-08T23:56:04.727Z,97501.20
2023-01-08T23:59:53.797Z,97498.83
